• Join FlightAware (Why Join?)
  • Login
  • US Flag 
02:35PM EDT


 

Airport Tracker/Info


-or-


 

Live Flight TrackerFlight Track Log ✈ EJA619 ✈ 18-Oct-2013 ✈ KMEM - KGSO

Flight Track Log - Related Links

Times and Time Zones

All times are in EDT time to prevent confusion due to time zone crossing. See the EJA619 flight status page for this flight to view local times or setup timezone preferences in your user account.

Time Position Orientation Groundspeed Altitude Reporting Facility
EDT Latitude Longitude Course Direction KTS MPH feet Rate Location/Type
02:52PM 35.1167 -89.5667 80° East 339 390 11,000  Level KMEM
02:53PM 35.1121 -89.5017 80° East  Level Estimated
02:53PM 35.0519 -89.4389 122° Southeast 392 451 11,000  Level Memphis Center
02:54PM 35.1232 -89.4247 80° East  Level Estimated
02:54PM 34.9928 -89.3381 126° Southeast 369 425 11,000  Level Memphis Center
02:55PM 35.1342 -89.3476 80° East  Level Estimated
02:55PM 34.9333 -89.2350 125° Southeast 369 425 11,000  Level Memphis Center
02:56PM 35.1453 -89.2706 80° East  Level Estimated
02:56PM 34.8886 -89.1394 120° Southeast 364 419 11,000  Level Memphis Center
02:57PM 35.1592 -89.1724 80° East  Level Estimated
02:57PM 34.8253 -89.0492 131° Southeast 359 413 11,000  Level Memphis Center
02:58PM 34.7656 -88.9514 127° Southeast 359 413 11,000  Level Memphis Center
02:59PM 34.7061 -88.8539 127° Southeast 359 413 11,000  Level Memphis Center
03:00PM 34.6486 -88.7542 125° Southeast 359 413 11,000  Level Memphis Center
03:01PM 34.5908 -88.6617 127° Southeast 359 413 11,000  Level Memphis Center
03:02PM 34.5311 -88.5622 126° Southeast 359 413 11,000  Level Memphis Center
03:03PM 34.4733 -88.4650 126° Southeast 359 413 11,000  Level Memphis Center
03:04PM 34.4156 -88.3706 127° Southeast 359 413 11,000  Level Memphis Center
03:05PM 34.3556 -88.2739 127° Southeast 359 413 11,000  Level Memphis Center
03:06PM 34.3161 -88.1642 113° Southeast 354 407 11,000  Level Memphis Center
03:07PM 34.2972 -88.0442 101° East 348 400 11,000  Level Memphis Center
03:08PM 34.2761 -87.9242 102° East 353 406 11,000  Level Memphis Center
03:09PM 34.2569 -87.8039 101° East 359 413 11,000  Level Memphis Center
03:11PM 34.2156 -87.5631 102° East 362 417 11,000  Level Atlanta Center
03:12PM 34.1919 -87.4317 102° East 362 417 11,000  Level Atlanta Center
03:13PM 34.1725 -87.3103 101° East 362 417 11,000  Level Atlanta Center
03:14PM 34.1506 -87.1914 103° East 362 417 11,000  Level Atlanta Center
03:15PM 34.1306 -87.0728 101° East 357 411 11,000  Level Atlanta Center
03:16PM 34.1083 -86.9542 103° East 357 411 11,000  Level Atlanta Center
03:17PM 34.0881 -86.8331 101° East 357 411 11,000  Level Atlanta Center
03:18PM 34.0658 -86.7144 103° East 357 411 11,000  Level Atlanta Center
03:19PM 34.0453 -86.5933 102° East 357 411 11,000  Level Atlanta Center
03:20PM 34.0228 -86.4775 103° East 357 411 11,000  Level Atlanta Center
03:21PM 34.0000 -86.3567 103° East 357 411 11,000  Level Atlanta Center
03:22PM 34.0128 -86.2342 83° East 357 411 11,000  Level Atlanta Center
03:23PM 34.0294 -86.1142 80° East 357 411 11,000  Level Atlanta Center
03:24PM 34.0481 -85.9919 80° East 363 418 11,000  Level Atlanta Center
03:25PM 34.0603 -85.8692 83° East 363 418 11,000  Level Atlanta Center
03:26PM 34.0764 -85.7617 80° East 368 423 11,000  Level Atlanta Center
03:27PM 34.0928 -85.6392 81° East 368 423 11,000  Level Atlanta Center
03:28PM 34.1089 -85.5192 81° East 368 423 11,000  Level Atlanta Center
03:29PM 34.1208 -85.3964 83° East 368 423 11,000  Level Atlanta Center
03:30PM 34.1408 -85.2611 80° East 368 423 11,000  Level Atlanta Center
03:31PM 34.1692 -85.1436 74° East 363 418 11,000  Level Atlanta Center
03:32PM 34.2203 -85.0361 60° Northeast 363 418 11,000  Level Atlanta Center
03:33PM 34.2711 -84.9261 61° Northeast 363 418 11,000  Level Atlanta Center
03:34PM 34.3197 -84.8186 61° Northeast 363 418 11,000  Level Atlanta Center
03:35PM 34.3706 -84.7083 61° Northeast 368 423 11,000  Level Atlanta Center
03:36PM 34.4128 -84.6103 62° Northeast 368 423 11,000  Level Atlanta Center
03:37PM 34.4633 -84.4997 61° Northeast 368 423 11,000  Level Atlanta Center
03:38PM 34.5075 -84.3892 64° Northeast 368 423 11,000  Level Atlanta Center
03:39PM 34.5328 -84.2683 76° East 368 423 11,000  Level Atlanta Center
03:40PM 34.5622 -84.1472 74° East 368 423 11,000  Level Atlanta Center
03:41PM 34.5872 -84.0136 77° East 368 423 11,000  Level Atlanta Center
03:42PM 34.6164 -83.8925 74° East 368 423 11,000  Level Atlanta Center
03:43PM 34.6414 -83.7686 76° East 368 423 11,000 -60 Level Atlanta Center
03:44PM 34.6681 -83.6497 75° East 363 418 10,900 -60 Descending Atlanta Center
03:45PM 34.6906 -83.5386 76° East 360 414 10,900  Level Atlanta Center
03:46PM 34.7194 -83.4222 73° East 360 414 10,900  Level Atlanta Center
03:47PM 34.7436 -83.3031 76° East 353 406 10,900  Level Atlanta Center
03:48PM 34.7719 -83.1664 76° East 364 419 10,900  Level Atlanta Center
03:49PM 34.7961 -83.0447 76° East 369 425 10,900  Level Atlanta Center
03:50PM 34.8181 -82.9356 76° East 374 430 10,900  Level Atlanta Center
03:51PM 34.8483 -82.8214 72° East 369 425 10,900  Level Atlanta Center
03:52PM 34.8742 -82.6969 76° East 369 425 10,900  Level Atlanta Center
03:53PM 34.9000 -82.5700 76° East 369 425 10,900  Level Atlanta Center
03:54PM 34.9256 -82.4503 75° East 369 425 10,900  Level Atlanta Center
03:55PM 34.9511 -82.3283 76° East 369 425 10,900  Level Atlanta Center
03:56PM 34.9786 -82.2061 75° East 374 430 10,900  Level Atlanta Center
03:57PM 35.0458 -82.1031 51° Northeast 360 414 10,900  Level Atlanta Center
03:58PM 35.1456 -82.0753 13° North 339 390 10,900  Level Atlanta Center
03:59PM 35.2411 -82.0475 13° North 344 396 10,900  Level Atlanta Center
04:00PM 35.3406 -82.0172 14° North 358 412 10,900  Level Atlanta Center
04:01PM 35.4383 -81.9867 14° North 358 412 10,900  Level Atlanta Center
04:02PM 35.5358 -81.9589 13° North 358 412 10,900  Level Atlanta Center
04:03PM 35.6311 -81.9231 17° North 358 412 10,900  Level Atlanta Center
04:04PM 35.6861 -81.8400 51° Northeast 355 409 11,000  Climbing Atlanta Center
04:05PM 35.7319 -81.7236 64° Northeast 355 409 11,000  Level Atlanta Center
04:06PM 35.7775 -81.6044 65° Northeast 366 421 11,000  Level Atlanta Center
04:07PM 35.8211 -81.4931 64° Northeast 366 421 11,000  Level Atlanta Center
04:08PM 35.8706 -81.3658 64° Northeast 366 421 11,000  Level Atlanta Center
04:09PM 35.9181 -81.2517 63° Northeast 366 421 11,000  Level Atlanta Center
04:10PM 35.9614 -81.1347 65° Northeast 366 421 11,000  Level Atlanta Center
04:11PM 36.0067 -81.0203 64° Northeast 366 421 11,000  Level Atlanta Center
04:12PM 36.0517 -80.9056 64° Northeast 366 421 11,000  Level Atlanta Center
04:13PM 36.0944 -80.7908 65° Northeast 366 421 11,000  Level Atlanta Center
04:14PM 36.1289 -80.6761 70° East 361 415 11,000  Level Atlanta Center
04:15PM 36.1175 -80.5661 97° East 335 386 11,000  Level Atlanta Center
04:16PM 36.0914 -80.4567 106° East 330 380 11,000 -960 Level Atlanta Center
04:17PM 36.0675 -80.3525 106° East 324 373 9,100 -1,920 Descending Atlanta Center
04:18PM 36.0417 -80.2561 108° East 307 353 7,200 -2,100 Descending Atlanta Center
04:19PM 36.0203 -80.1700 107° East 292 336 5,000 -2,100 Descending Atlanta Center
04:20PM 36.0092 -80.0856 99° East 271 312 3,100 -1,140 Descending Atlanta Center
04:21PM 36.0300 -80.0153 70° East 228 262 2,800 -660 Descending Atlanta Center
04:22PM 36.0619 -79.9778 43° Northeast 161 185 1,800 -1,020 Descending Atlanta Center
04:24PM 36.1000 -79.9333 15° North  Level FlightAware Approximate
04:31PM 36.1013 -79.9411 15° North  Level Estimated
04:32PM 36.1000 -79.9333 15° North  Level FlightAware Approximate